createdAt,value
2023-05-31T00:00:17.437Z,88692.00
2023-05-31T00:01:17.444Z,88696.00
2023-05-31T00:02:17.469Z,88692.00
2023-05-31T00:03:17.646Z,88692.00
2023-05-31T00:04:17.523Z,88694.00
2023-05-31T00:05:17.485Z,88692.00
2023-05-31T00:06:17.495Z,88692.00
2023-05-31T00:07:17.440Z,88694.00
2023-05-31T00:08:17.396Z,88692.00
2023-05-31T00:09:17.370Z,88694.00
2023-05-31T00:10:17.366Z,88696.00
2023-05-31T00:11:17.336Z,88696.00
2023-05-31T00:12:17.301Z,88696.00
2023-05-31T00:13:17.272Z,88696.00
2023-05-31T00:14:17.237Z,88692.00
2023-05-31T00:15:17.240Z,88694.00
2023-05-31T00:16:45.070Z,88692.00
2023-05-31T00:18:18.310Z,88692.00
2023-05-31T00:19:17.204Z,88692.00
2023-05-31T00:20:17.151Z,88692.00
2023-05-31T00:21:17.094Z,88690.00
2023-05-31T00:22:17.071Z,88692.00
2023-05-31T00:23:17.047Z,88694.00
2023-05-31T00:24:17.012Z,88692.00
2023-05-31T00:25:16.983Z,88692.00
2023-05-31T00:26:16.958Z,88692.00
2023-05-31T00:27:16.919Z,88694.00
2023-05-31T00:28:16.972Z,88692.00
2023-05-31T00:29:16.866Z,88692.00
2023-05-31T00:30:16.840Z,88694.00
2023-05-31T00:31:16.841Z,88690.00
2023-05-31T00:32:16.790Z,88692.00
2023-05-31T00:33:16.740Z,88694.00
2023-05-31T00:34:16.710Z,88696.00
2023-05-31T00:35:16.693Z,88694.00
2023-05-31T00:36:16.673Z,88694.00
2023-05-31T00:37:16.623Z,88694.00
2023-05-31T00:38:16.603Z,88696.00
2023-05-31T00:39:16.629Z,88696.00
2023-05-31T00:40:16.654Z,88696.00
2023-05-31T00:41:16.694Z,88696.00
2023-05-31T00:42:16.726Z,88694.00
2023-05-31T00:43:16.740Z,88694.00
2023-05-31T00:44:16.778Z,88696.00
2023-05-31T00:45:16.797Z,88696.00
2023-05-31T00:46:16.829Z,88698.00
2023-05-31T00:47:16.881Z,88698.00
2023-05-31T00:48:16.981Z,88698.00
2023-05-31T00:49:16.933Z,88698.00
2023-05-31T00:50:16.953Z,88698.00
2023-05-31T00:51:16.978Z,88698.00
2023-05-31T00:52:17.001Z,88698.00
2023-05-31T00:53:17.038Z,88698.00
2023-05-31T00:54:17.083Z,88696.00
2023-05-31T00:55:17.120Z,88698.00
2023-05-31T00:56:17.190Z,88694.00
2023-05-31T00:57:17.213Z,88692.00
2023-05-31T00:58:17.252Z,88692.00
2023-05-31T00:59:17.281Z,88690.00
2023-05-31T01:00:17.325Z,88694.00
2023-05-31T01:01:17.450Z,88694.00
2023-05-31T01:02:17.394Z,88696.00
2023-05-31T01:03:17.464Z,88698.00
2023-05-31T01:04:17.499Z,88696.00
2023-05-31T01:05:17.493Z,88696.00
2023-05-31T01:06:17.530Z,88702.00
2023-05-31T01:07:17.486Z,88698.00
2023-05-31T01:08:17.498Z,88698.00
2023-05-31T01:09:17.442Z,88700.00
2023-05-31T01:10:17.438Z,88700.00
2023-05-31T01:11:17.396Z,88700.00
2023-05-31T01:12:17.381Z,88700.00
2023-05-31T01:13:17.332Z,88700.00
2023-05-31T01:14:17.307Z,88700.00
2023-05-31T01:15:17.275Z,88700.00
2023-05-31T01:16:17.329Z,88700.00
2023-05-31T01:17:17.313Z,88700.00
2023-05-31T01:18:17.336Z,88700.00
2023-05-31T01:19:17.368Z,88702.00
2023-05-31T01:20:17.429Z,88702.00
2023-05-31T01:21:17.432Z,88698.00
2023-05-31T01:22:17.464Z,88698.00
2023-05-31T01:23:17.511Z,88698.00
2023-05-31T01:24:17.564Z,88698.00
2023-05-31T01:25:17.589Z,88700.00
2023-05-31T01:26:17.625Z,88700.00
2023-05-31T01:27:17.672Z,88700.00
2023-05-31T01:28:17.712Z,88700.00
2023-05-31T01:29:17.752Z,88700.00
2023-05-31T01:30:17.793Z,88702.00
2023-05-31T01:31:17.873Z,88700.00
2023-05-31T01:32:17.872Z,88702.00
2023-05-31T01:33:17.893Z,88702.00
2023-05-31T01:34:17.963Z,88698.00
2023-05-31T01:35:17.971Z,88698.00
2023-05-31T01:36:18.012Z,88698.00
2023-05-31T01:37:18.049Z,88698.00
2023-05-31T01:38:18.100Z,88702.00
2023-05-31T01:39:18.122Z,88702.00
2023-05-31T01:40:18.172Z,88702.00
2023-05-31T01:41:18.206Z,88702.00
2023-05-31T01:42:18.247Z,88702.00
2023-05-31T01:43:18.254Z,88700.00
2023-05-31T01:44:18.281Z,88702.00
2023-05-31T01:45:18.308Z,88702.00
2023-05-31T01:46:18.437Z,88702.00
2023-05-31T01:47:18.386Z,88702.00
2023-05-31T01:48:18.430Z,88706.00
2023-05-31T01:49:18.495Z,88704.00
2023-05-31T01:50:18.507Z,88704.00
2023-05-31T01:51:18.521Z,88704.00
2023-05-31T01:52:18.557Z,88706.00
2023-05-31T01:53:18.595Z,88704.00
2023-05-31T01:54:18.624Z,88704.00
2023-05-31T01:55:18.654Z,88704.00
2023-05-31T01:56:18.713Z,88706.00
2023-05-31T01:57:18.766Z,88706.00
2023-05-31T01:58:18.797Z,88706.00
2023-05-31T01:59:18.839Z,88708.00
2023-05-31T02:00:18.873Z,88710.00
2023-05-31T02:01:18.988Z,88710.00
2023-05-31T02:02:18.962Z,88708.00
2023-05-31T02:03:19.039Z,88708.00
2023-05-31T02:04:19.049Z,88708.00
2023-05-31T02:05:19.075Z,88708.00
2023-05-31T02:06:19.125Z,88712.00
2023-05-31T02:07:19.155Z,88712.00
2023-05-31T02:08:19.184Z,88712.00
2023-05-31T02:09:19.207Z,88712.00
2023-05-31T02:10:19.230Z,88712.00
2023-05-31T02:11:19.266Z,88712.00
2023-05-31T02:12:19.311Z,88714.00
2023-05-31T02:13:19.290Z,88714.00
2023-05-31T02:14:19.244Z,88710.00
2023-05-31T02:15:19.229Z,88714.00
2023-05-31T02:16:19.203Z,88712.00
2023-05-31T02:17:19.173Z,88714.00
2023-05-31T02:18:19.175Z,88712.00
2023-05-31T02:19:19.126Z,88714.00
2023-05-31T02:20:19.154Z,88712.00
2023-05-31T02:21:19.155Z,88714.00
2023-05-31T02:22:19.116Z,88712.00
2023-05-31T02:23:19.097Z,88712.00
2023-05-31T02:24:19.076Z,88712.00
2023-05-31T02:25:19.060Z,88708.00
2023-05-31T02:26:19.044Z,88710.00
2023-05-31T02:27:18.999Z,88708.00
2023-05-31T02:28:18.976Z,88706.00
2023-05-31T02:29:18.932Z,88706.00
2023-05-31T02:30:18.933Z,88708.00
2023-05-31T02:31:19.021Z,88706.00
2023-05-31T02:32:18.961Z,88706.00
2023-05-31T02:33:18.960Z,88706.00
2023-05-31T02:34:18.975Z,88706.00
2023-05-31T02:35:19.014Z,88704.00
2023-05-31T02:36:19.046Z,88702.00
2023-05-31T02:37:19.049Z,88704.00
2023-05-31T02:38:19.046Z,88702.00
2023-05-31T02:39:19.052Z,88704.00
2023-05-31T02:40:19.080Z,88702.00
2023-05-31T02:41:19.109Z,88702.00
2023-05-31T02:42:19.149Z,88700.00
2023-05-31T02:43:19.166Z,88700.00
2023-05-31T02:44:19.210Z,88700.00
2023-05-31T02:45:19.251Z,88702.00
2023-05-31T02:46:19.342Z,88700.00
2023-05-31T02:47:19.329Z,88698.00
2023-05-31T02:48:19.410Z,88698.00
2023-05-31T02:49:19.417Z,88698.00
2023-05-31T02:50:19.469Z,88694.00
2023-05-31T02:51:19.524Z,88696.00
2023-05-31T02:52:19.541Z,88696.00
2023-05-31T02:53:19.561Z,88698.00
2023-05-31T02:54:19.558Z,88692.00
2023-05-31T02:55:19.550Z,88692.00
2023-05-31T02:56:19.544Z,88694.00
2023-05-31T02:57:19.517Z,88694.00
2023-05-31T02:58:19.507Z,88692.00
2023-05-31T02:59:19.523Z,88694.00
2023-05-31T03:00:19.504Z,88694.00
2023-05-31T03:01:19.518Z,88692.00
2023-05-31T03:02:19.525Z,88690.00
2023-05-31T03:03:19.663Z,88690.00
2023-05-31T03:04:19.575Z,88692.00
2023-05-31T03:05:19.621Z,88692.00
2023-05-31T03:06:19.626Z,88692.00
2023-05-31T03:07:19.644Z,88690.00
2023-05-31T03:08:19.686Z,88692.00
2023-05-31T03:09:19.727Z,88690.00
2023-05-31T03:10:19.758Z,88686.00
2023-05-31T03:11:19.819Z,88686.00
2023-05-31T03:12:19.784Z,88688.00
2023-05-31T03:13:19.782Z,88686.00
2023-05-31T03:14:19.767Z,88686.00
2023-05-31T03:15:19.769Z,88686.00
2023-05-31T03:16:19.813Z,88688.00
2023-05-31T03:17:19.723Z,88688.00
2023-05-31T03:18:19.730Z,88688.00
2023-05-31T03:19:19.708Z,88690.00
2023-05-31T03:20:19.763Z,88692.00
2023-05-31T03:21:19.721Z,88694.00
2023-05-31T03:22:19.732Z,88696.00
2023-05-31T03:23:19.794Z,88692.00
2023-05-31T03:24:19.854Z,88696.00
2023-05-31T03:25:19.930Z,88696.00
2023-05-31T03:26:19.980Z,88696.00
2023-05-31T03:27:20.044Z,88694.00
2023-05-31T03:28:20.096Z,88694.00
2023-05-31T03:29:20.202Z,88694.00
2023-05-31T03:30:20.253Z,88694.00
2023-05-31T03:31:20.429Z,88692.00
2023-05-31T03:32:20.362Z,88690.00
2023-05-31T03:33:20.444Z,88692.00
2023-05-31T03:34:20.490Z,88690.00
2023-05-31T03:35:20.557Z,88694.00
2023-05-31T03:36:20.598Z,88692.00
2023-05-31T03:37:20.659Z,88692.00
2023-05-31T03:38:20.709Z,88694.00
2023-05-31T03:39:20.775Z,88696.00
2023-05-31T03:40:20.829Z,88696.00
2023-05-31T03:41:20.876Z,88694.00
2023-05-31T03:42:20.945Z,88698.00
2023-05-31T03:43:21.003Z,88698.00
2023-05-31T03:44:21.023Z,88698.00
2023-05-31T03:45:21.037Z,88698.00
2023-05-31T03:46:21.136Z,88702.00
2023-05-31T03:47:21.100Z,88700.00
2023-05-31T03:48:21.122Z,88702.00
2023-05-31T03:49:21.169Z,88702.00
2023-05-31T03:50:21.244Z,88702.00
2023-05-31T03:51:21.311Z,88702.00
2023-05-31T03:52:21.364Z,88704.00
2023-05-31T03:53:21.427Z,88704.00
2023-05-31T03:54:21.479Z,88706.00
2023-05-31T03:55:21.541Z,88706.00
2023-05-31T03:56:21.596Z,88706.00
2023-05-31T03:57:21.654Z,88708.00
2023-05-31T03:58:21.722Z,88708.00
2023-05-31T03:59:21.812Z,88708.00
2023-05-31T04:00:21.877Z,88704.00
2023-05-31T04:01:21.953Z,88702.00
2023-05-31T04:02:22.005Z,88704.00
2023-05-31T04:03:22.123Z,88704.00
2023-05-31T04:04:22.158Z,88704.00
2023-05-31T04:05:22.018Z,88704.00
2023-05-31T04:06:22.025Z,88704.00
2023-05-31T04:07:22.014Z,88704.00
2023-05-31T04:08:22.022Z,88704.00
2023-05-31T04:09:22.010Z,88704.00
2023-05-31T04:10:22.037Z,88702.00
2023-05-31T04:11:22.020Z,88700.00
2023-05-31T04:12:22.010Z,88700.00
2023-05-31T04:13:22.009Z,88700.00
2023-05-31T04:14:22.018Z,88700.00
2023-05-31T04:15:22.013Z,88700.00
2023-05-31T04:16:22.006Z,88698.00
2023-05-31T04:17:21.996Z,88698.00
2023-05-31T04:18:22.001Z,88700.00
2023-05-31T04:19:22.017Z,88698.00
2023-05-31T04:20:22.003Z,88698.00
2023-05-31T04:21:21.998Z,88700.00
2023-05-31T04:22:22.004Z,88702.00
2023-05-31T04:23:22.030Z,88702.00
2023-05-31T04:24:21.997Z,88704.00
2023-05-31T04:25:22.010Z,88704.00
2023-05-31T04:26:22.090Z,88702.00
2023-05-31T04:27:22.071Z,88706.00
2023-05-31T04:28:22.007Z,88704.00
2023-05-31T04:29:22.011Z,88706.00
2023-05-31T04:30:22.063Z,88706.00
2023-05-31T04:31:22.058Z,88704.00
2023-05-31T04:32:22.078Z,88706.00
2023-05-31T04:33:22.091Z,88706.00
2023-05-31T04:34:22.022Z,88706.00
2023-05-31T04:35:22.019Z,88704.00
2023-05-31T04:36:22.074Z,88704.00
2023-05-31T04:37:22.015Z,88702.00
2023-05-31T04:38:22.019Z,88702.00
2023-05-31T04:39:22.018Z,88702.00
2023-05-31T04:40:22.019Z,88704.00
2023-05-31T04:41:22.011Z,88702.00
2023-05-31T04:42:22.018Z,88706.00
2023-05-31T04:43:22.001Z,88704.00
2023-05-31T04:44:22.038Z,88704.00
2023-05-31T04:45:22.019Z,88704.00
2023-05-31T04:46:22.051Z,88706.00
2023-05-31T04:47:22.028Z,88706.00
2023-05-31T04:48:21.999Z,88706.00
2023-05-31T04:49:21.959Z,88706.00
2023-05-31T04:50:21.953Z,88706.00
2023-05-31T04:51:21.951Z,88706.00
2023-05-31T04:52:21.938Z,88704.00
2023-05-31T04:53:21.924Z,88704.00
2023-05-31T04:54:21.965Z,88706.00
2023-05-31T04:55:21.942Z,88704.00
2023-05-31T04:56:21.942Z,88704.00
2023-05-31T04:57:21.927Z,88696.00
2023-05-31T04:58:21.949Z,88700.00
2023-05-31T04:59:21.912Z,88698.00
2023-05-31T05:00:21.903Z,88698.00
2023-05-31T05:01:21.895Z,88696.00
2023-05-31T05:02:21.874Z,88696.00
2023-05-31T05:03:21.950Z,88698.00
2023-05-31T05:04:21.844Z,88696.00
2023-05-31T05:05:21.851Z,88698.00
2023-05-31T05:06:21.828Z,88698.00
2023-05-31T05:07:21.878Z,88696.00
2023-05-31T05:08:21.902Z,88698.00
2023-05-31T05:09:21.876Z,88696.00
2023-05-31T05:10:21.866Z,88696.00
2023-05-31T05:11:21.838Z,88698.00
2023-05-31T05:12:21.816Z,88696.00
2023-05-31T05:13:21.802Z,88700.00
2023-05-31T05:14:21.818Z,88698.00
2023-05-31T05:15:21.771Z,88700.00
2023-05-31T05:16:21.752Z,88700.00
2023-05-31T05:17:21.721Z,88702.00
2023-05-31T05:18:21.748Z,88696.00
2023-05-31T05:19:21.702Z,88700.00
2023-05-31T05:20:21.704Z,88696.00
2023-05-31T05:21:21.673Z,88698.00
2023-05-31T05:22:21.647Z,88696.00
2023-05-31T05:23:21.657Z,88692.00
2023-05-31T05:24:21.693Z,88694.00
2023-05-31T05:25:21.743Z,88690.00
2023-05-31T05:26:21.745Z,88692.00
2023-05-31T05:27:21.783Z,88692.00
2023-05-31T05:28:21.805Z,88690.00
2023-05-31T05:29:21.858Z,88692.00
2023-05-31T05:30:21.857Z,88690.00
2023-05-31T05:31:21.916Z,88690.00
2023-05-31T05:32:21.853Z,88690.00
2023-05-31T05:33:21.847Z,88692.00
2023-05-31T05:34:21.900Z,88690.00
2023-05-31T05:35:21.851Z,88688.00
2023-05-31T05:36:21.824Z,88692.00
2023-05-31T05:37:21.777Z,88688.00
2023-05-31T05:38:21.759Z,88690.00
2023-05-31T05:39:21.729Z,88688.00
2023-05-31T05:40:21.717Z,88686.00
2023-05-31T05:41:21.701Z,88686.00
2023-05-31T05:42:21.674Z,88688.00
2023-05-31T05:43:21.650Z,88684.00
2023-05-31T05:44:21.620Z,88684.00
2023-05-31T05:45:21.611Z,88682.00
2023-05-31T05:46:21.644Z,88680.00
2023-05-31T05:47:21.585Z,88680.00
2023-05-31T05:48:21.586Z,88682.00
2023-05-31T05:49:21.553Z,88680.00
2023-05-31T05:50:21.556Z,88678.00
2023-05-31T05:51:21.630Z,88678.00
2023-05-31T05:52:21.617Z,88678.00
2023-05-31T05:53:21.567Z,88676.00
2023-05-31T05:54:21.552Z,88674.00
2023-05-31T05:55:21.562Z,88678.00
2023-05-31T05:56:21.528Z,88674.00
2023-05-31T05:57:21.507Z,88676.00
2023-05-31T05:58:21.482Z,88674.00
2023-05-31T05:59:21.446Z,88674.00
2023-05-31T06:00:21.469Z,88674.00
2023-05-31T06:01:21.428Z,88674.00
2023-05-31T06:02:21.427Z,88672.00
2023-05-31T06:03:21.441Z,88672.00
2023-05-31T06:04:21.337Z,88670.00
2023-05-31T06:05:21.327Z,88670.00
2023-05-31T06:06:21.293Z,88670.00
2023-05-31T06:07:21.293Z,88670.00
2023-05-31T06:08:21.269Z,88670.00
2023-05-31T06:09:21.223Z,88670.00
2023-05-31T06:10:21.170Z,88668.00
2023-05-31T06:11:21.151Z,88668.00
2023-05-31T06:12:21.124Z,88668.00
2023-05-31T06:13:21.083Z,88668.00
2023-05-31T06:14:21.065Z,88666.00
2023-05-31T06:15:21.101Z,88670.00
2023-05-31T06:16:21.222Z,88668.00
2023-05-31T06:17:21.266Z,88664.00
2023-05-31T06:18:21.195Z,88662.00
2023-05-31T06:19:21.202Z,88662.00
2023-05-31T06:20:21.268Z,88666.00
2023-05-31T06:21:21.184Z,88664.00
2023-05-31T06:22:21.175Z,88664.00
2023-05-31T06:23:21.121Z,88662.00
2023-05-31T06:24:21.099Z,88662.00
2023-05-31T06:25:21.070Z,88662.00
2023-05-31T06:26:21.042Z,88662.00
2023-05-31T06:27:21.009Z,88660.00
2023-05-31T06:28:20.961Z,88660.00
2023-05-31T06:29:20.927Z,88659.00
2023-05-31T06:30:20.956Z,88659.00
2023-05-31T06:31:20.874Z,88659.00
2023-05-31T06:32:20.845Z,88657.00
2023-05-31T06:33:20.844Z,88659.00
2023-05-31T06:34:20.851Z,88655.00
2023-05-31T06:35:20.868Z,88653.00
2023-05-31T06:36:20.864Z,88653.00
2023-05-31T06:37:20.885Z,88653.00
2023-05-31T06:38:20.874Z,88653.00
2023-05-31T06:39:20.849Z,88649.00
2023-05-31T06:40:20.799Z,88649.00
2023-05-31T06:41:20.753Z,88647.00
2023-05-31T06:42:20.758Z,88645.00
2023-05-31T06:43:20.731Z,88645.00
2023-05-31T06:44:20.665Z,88647.00
2023-05-31T06:45:20.614Z,88645.00
2023-05-31T06:46:20.601Z,88641.00
2023-05-31T06:47:20.789Z,88643.00
2023-05-31T06:48:20.556Z,88639.00
2023-05-31T06:49:20.536Z,88635.00
2023-05-31T06:50:20.473Z,88635.00
2023-05-31T06:51:20.541Z,88631.00
2023-05-31T06:52:20.547Z,88629.00
2023-05-31T06:53:20.567Z,88627.00
2023-05-31T06:54:20.597Z,88631.00
2023-05-31T06:55:20.633Z,88631.00
2023-05-31T06:56:20.650Z,88625.00
2023-05-31T06:57:20.704Z,88625.00
2023-05-31T06:58:20.728Z,88625.00
2023-05-31T06:59:20.775Z,88627.00
2023-05-31T07:00:20.831Z,88625.00
2023-05-31T07:01:20.893Z,88623.00
2023-05-31T07:02:20.900Z,88625.00
2023-05-31T07:03:20.972Z,88623.00
2023-05-31T07:04:20.899Z,88621.00
2023-05-31T07:05:20.880Z,88621.00
2023-05-31T07:06:22.459Z,88621.00
2023-05-31T07:07:20.872Z,88619.00
2023-05-31T07:08:20.818Z,88621.00
2023-05-31T07:09:20.799Z,88619.00
2023-05-31T07:10:20.775Z,88615.00
2023-05-31T07:11:20.787Z,88615.00
2023-05-31T07:12:20.724Z,88615.00
2023-05-31T07:13:20.736Z,88617.00
2023-05-31T07:14:20.704Z,88617.00
2023-05-31T07:15:20.705Z,88617.00
2023-05-31T07:16:20.784Z,88617.00
2023-05-31T07:17:20.785Z,88615.00
2023-05-31T07:18:20.826Z,88613.00
2023-05-31T07:19:20.871Z,88615.00
2023-05-31T07:20:20.930Z,88613.00
2023-05-31T07:21:20.953Z,88613.00
2023-05-31T07:22:20.991Z,88612.00
2023-05-31T07:23:20.997Z,88612.00
2023-05-31T07:24:21.009Z,88613.00
2023-05-31T07:25:21.015Z,88615.00
2023-05-31T07:26:21.014Z,88613.00
2023-05-31T07:27:20.991Z,88612.00
2023-05-31T07:28:20.987Z,88610.00
2023-05-31T07:29:20.978Z,88612.00
2023-05-31T07:30:20.943Z,88610.00
2023-05-31T07:31:21.916Z,88608.00
2023-05-31T07:32:20.950Z,88608.00
2023-05-31T07:33:28.895Z,88606.00
2023-05-31T07:34:21.917Z,88606.00
2023-05-31T07:35:20.907Z,88604.00
2023-05-31T07:36:21.096Z,88602.00
2023-05-31T07:37:20.884Z,88602.00
2023-05-31T07:38:20.860Z,88604.00
2023-05-31T07:39:20.873Z,88606.00
2023-05-31T07:40:20.802Z,88604.00
2023-05-31T07:41:20.778Z,88606.00
2023-05-31T07:42:20.749Z,88606.00
2023-05-31T07:43:20.741Z,88608.00
2023-05-31T07:44:20.748Z,88608.00
2023-05-31T07:45:20.697Z,88606.00
2023-05-31T07:46:20.666Z,88604.00
2023-05-31T07:47:20.646Z,88606.00
2023-05-31T07:48:20.586Z,88600.00
2023-05-31T07:49:20.858Z,88602.00
2023-05-31T07:50:20.560Z,88602.00
2023-05-31T07:51:20.792Z,88602.00
2023-05-31T07:52:20.520Z,88596.00
2023-05-31T07:53:20.476Z,88594.00
2023-05-31T07:54:20.449Z,88598.00
2023-05-31T07:55:20.454Z,88590.00
2023-05-31T07:56:20.521Z,88594.00
2023-05-31T07:57:20.423Z,88594.00
2023-05-31T07:58:20.391Z,88594.00
2023-05-31T07:59:20.392Z,88592.00
2023-05-31T08:00:20.320Z,88592.00
2023-05-31T08:01:20.298Z,88588.00
2023-05-31T08:02:20.302Z,88586.00
2023-05-31T08:03:20.280Z,88590.00
2023-05-31T08:04:20.305Z,88588.00
2023-05-31T08:05:20.229Z,88586.00
2023-05-31T08:06:20.149Z,88588.00
2023-05-31T08:07:20.126Z,88586.00
2023-05-31T08:08:20.096Z,88588.00
2023-05-31T08:09:20.078Z,88588.00
2023-05-31T08:10:20.146Z,88590.00
2023-05-31T08:11:20.011Z,88586.00
2023-05-31T08:12:23.800Z,88588.00
2023-05-31T08:13:20.977Z,88588.00
2023-05-31T08:14:19.937Z,88590.00
2023-05-31T08:15:19.896Z,88590.00
2023-05-31T08:16:19.912Z,88590.00
2023-05-31T08:17:19.956Z,88590.00
2023-05-31T08:18:19.842Z,88590.00
2023-05-31T08:19:19.824Z,88584.00
2023-05-31T08:20:19.823Z,88582.00
2023-05-31T08:21:19.759Z,88578.00
2023-05-31T08:22:19.741Z,88576.00
2023-05-31T08:23:19.715Z,88576.00
2023-05-31T08:24:19.680Z,88574.00
2023-05-31T08:25:19.658Z,88574.00
2023-05-31T08:26:19.642Z,88574.00
2023-05-31T08:27:19.711Z,88576.00
2023-05-31T08:28:19.624Z,88578.00
2023-05-31T08:29:19.578Z,88574.00
2023-05-31T08:30:19.614Z,88574.00
2023-05-31T08:31:19.651Z,88572.00
2023-05-31T08:32:19.646Z,88574.00
2023-05-31T08:33:19.677Z,88574.00
2023-05-31T08:34:19.682Z,88572.00
2023-05-31T08:35:19.694Z,88572.00
2023-05-31T08:36:19.692Z,88572.00
2023-05-31T08:37:19.699Z,88574.00
2023-05-31T08:38:19.645Z,88574.00
2023-05-31T08:39:19.630Z,88574.00
2023-05-31T08:40:19.615Z,88576.00
2023-05-31T08:41:19.588Z,88576.00
2023-05-31T08:42:19.602Z,88578.00
2023-05-31T08:43:19.530Z,88578.00
2023-05-31T08:44:19.501Z,88576.00
2023-05-31T08:45:19.501Z,88578.00
2023-05-31T08:46:19.536Z,88578.00
2023-05-31T08:47:19.536Z,88580.00
2023-05-31T08:48:19.515Z,88582.00
2023-05-31T08:49:19.378Z,88582.00
2023-05-31T08:50:19.367Z,88580.00
2023-05-31T08:51:19.339Z,88574.00
2023-05-31T08:52:19.314Z,88574.00
2023-05-31T08:53:19.308Z,88576.00
2023-05-31T08:54:19.255Z,88574.00
2023-05-31T08:55:19.299Z,88574.00
2023-05-31T08:56:19.348Z,88574.00
2023-05-31T08:57:19.437Z,88574.00
2023-05-31T08:58:19.434Z,88574.00
2023-05-31T08:59:19.493Z,88572.00
2023-05-31T09:00:19.536Z,88574.00
2023-05-31T09:01:19.593Z,88578.00
2023-05-31T09:02:19.612Z,88576.00
2023-05-31T09:03:19.640Z,88578.00
2023-05-31T09:04:19.697Z,88580.00
2023-05-31T09:05:19.774Z,88578.00
2023-05-31T09:06:19.792Z,88578.00
2023-05-31T09:07:19.875Z,88576.00
2023-05-31T09:08:19.830Z,88576.00
2023-05-31T09:09:19.735Z,88580.00
2023-05-31T09:10:19.725Z,88582.00
2023-05-31T09:11:19.691Z,88580.00
2023-05-31T09:12:19.733Z,88582.00
2023-05-31T09:13:19.642Z,88580.00
2023-05-31T09:14:19.604Z,88584.00
2023-05-31T09:15:19.659Z,88582.00
2023-05-31T09:16:19.695Z,88582.00
2023-05-31T09:17:19.687Z,88582.00
2023-05-31T09:18:19.696Z,88582.00
2023-05-31T09:19:19.765Z,88578.00
2023-05-31T09:20:19.872Z,88576.00
2023-05-31T09:21:19.774Z,88578.00
2023-05-31T09:22:19.844Z,88576.00
2023-05-31T09:23:19.831Z,88578.00
2023-05-31T09:24:19.833Z,88574.00
2023-05-31T09:25:19.857Z,88578.00
2023-05-31T09:26:19.901Z,88576.00
2023-05-31T09:27:19.914Z,88572.00
2023-05-31T09:28:19.934Z,88572.00
2023-05-31T09:29:19.929Z,88572.00
2023-05-31T09:30:19.971Z,88574.00
2023-05-31T09:31:19.887Z,88572.00
2023-05-31T09:32:19.866Z,88570.00
2023-05-31T09:33:19.904Z,88568.00
2023-05-31T09:34:19.840Z,88570.00
2023-05-31T09:35:19.739Z,88568.00
2023-05-31T09:36:19.729Z,88566.00
2023-05-31T09:37:19.684Z,88566.00
2023-05-31T09:38:19.655Z,88562.00
2023-05-31T09:39:19.629Z,88558.00
2023-05-31T09:40:19.602Z,88555.00
2023-05-31T09:41:19.573Z,88560.00
2023-05-31T09:42:19.559Z,88558.00
2023-05-31T09:43:19.581Z,88555.00
2023-05-31T09:44:19.479Z,88557.00
2023-05-31T09:45:19.447Z,88558.00
2023-05-31T09:46:19.442Z,88557.00
2023-05-31T09:47:19.408Z,88553.00
2023-05-31T09:48:19.343Z,88557.00
2023-05-31T09:49:19.314Z,88555.00
2023-05-31T09:50:19.383Z,88553.00
2023-05-31T09:51:19.267Z,88558.00
2023-05-31T09:52:19.237Z,88560.00
2023-05-31T09:53:19.381Z,88560.00
2023-05-31T09:54:19.197Z,88560.00
2023-05-31T09:55:19.134Z,88557.00
2023-05-31T09:56:19.178Z,88558.00
2023-05-31T09:57:19.086Z,88557.00
2023-05-31T09:58:19.061Z,88555.00
2023-05-31T09:59:19.102Z,88557.00
2023-05-31T10:00:19.128Z,88555.00
2023-05-31T10:01:19.178Z,88551.00
2023-05-31T10:02:19.167Z,88553.00
2023-05-31T10:03:19.246Z,88549.00
2023-05-31T10:04:19.139Z,88549.00
2023-05-31T10:05:19.108Z,88551.00
2023-05-31T10:06:19.088Z,88549.00
2023-05-31T10:07:19.051Z,88551.00
2023-05-31T10:08:19.064Z,88549.00
2023-05-31T10:09:18.993Z,88549.00
2023-05-31T10:10:18.971Z,88549.00
2023-05-31T10:11:18.939Z,88547.00
2023-05-31T10:12:18.952Z,88549.00
2023-05-31T10:13:18.922Z,88549.00
2023-05-31T10:14:18.888Z,88547.00
2023-05-31T10:15:18.913Z,88547.00
2023-05-31T10:16:19.020Z,88547.00
2023-05-31T10:17:18.948Z,88551.00
2023-05-31T10:18:18.975Z,88547.00
2023-05-31T10:19:19.101Z,88549.00
2023-05-31T10:20:19.035Z,88547.00
2023-05-31T10:21:19.035Z,88545.00
2023-05-31T10:22:19.043Z,88545.00
2023-05-31T10:23:19.058Z,88545.00
2023-05-31T10:24:19.092Z,88547.00
2023-05-31T10:25:19.116Z,88549.00
2023-05-31T10:26:19.136Z,88551.00
2023-05-31T10:27:19.172Z,88549.00
2023-05-31T10:28:19.152Z,88547.00
2023-05-31T10:29:19.184Z,88551.00
2023-05-31T10:30:19.200Z,88547.00
2023-05-31T10:31:19.292Z,88547.00
2023-05-31T10:32:19.268Z,88549.00
2023-05-31T10:33:19.274Z,88547.00
2023-05-31T10:34:19.290Z,88545.00
2023-05-31T10:35:19.321Z,88545.00
2023-05-31T10:36:19.326Z,88545.00
2023-05-31T10:37:19.363Z,88545.00
2023-05-31T10:38:19.353Z,88545.00
2023-05-31T10:39:19.358Z,88541.00
2023-05-31T10:40:19.386Z,88541.00
2023-05-31T10:41:25.068Z,88543.00
2023-05-31T10:42:20.329Z,88541.00
2023-05-31T10:43:19.286Z,88541.00
2023-05-31T10:44:19.351Z,88541.00
2023-05-31T10:45:19.229Z,88541.00
2023-05-31T10:46:19.228Z,88541.00
2023-05-31T10:47:19.213Z,88541.00
2023-05-31T10:48:19.188Z,88539.00
2023-05-31T10:49:19.113Z,88539.00
2023-05-31T10:50:19.090Z,88541.00
2023-05-31T10:51:19.051Z,88539.00
2023-05-31T10:52:19.044Z,88535.00
2023-05-31T10:53:19.005Z,88535.00
2023-05-31T10:54:18.996Z,88533.00
2023-05-31T10:55:18.954Z,88531.00
2023-05-31T10:56:18.954Z,88527.00
2023-05-31T10:57:18.958Z,88525.00
2023-05-31T10:58:18.971Z,88529.00
2023-05-31T10:59:19.005Z,88527.00
2023-05-31T11:00:19.041Z,88525.00
2023-05-31T11:01:19.102Z,88525.00
2023-05-31T11:02:19.174Z,88529.00
2023-05-31T11:03:19.167Z,88531.00
2023-05-31T11:04:19.326Z,88529.00
2023-05-31T11:05:19.157Z,88531.00
2023-05-31T11:06:19.154Z,88533.00
2023-05-31T11:07:19.193Z,88533.00
2023-05-31T11:08:19.200Z,88533.00
2023-05-31T11:09:19.220Z,88533.00
2023-05-31T11:10:19.263Z,88533.00
2023-05-31T11:11:19.268Z,88535.00
2023-05-31T11:12:19.296Z,88535.00
2023-05-31T11:13:19.699Z,88533.00
2023-05-31T11:14:19.349Z,88535.00
2023-05-31T11:15:19.390Z,88537.00
2023-05-31T11:16:19.458Z,88539.00
2023-05-31T11:17:19.436Z,88539.00
2023-05-31T11:18:19.473Z,88537.00
2023-05-31T11:19:19.494Z,88539.00
2023-05-31T11:20:19.582Z,88539.00
2023-05-31T11:21:19.452Z,88539.00
2023-05-31T11:22:19.424Z,88539.00
2023-05-31T11:23:19.403Z,88539.00
2023-05-31T11:24:19.444Z,88537.00
2023-05-31T11:25:19.413Z,88541.00
2023-05-31T11:26:19.361Z,88537.00
2023-05-31T11:27:19.362Z,88541.00
2023-05-31T11:28:19.267Z,88539.00
2023-05-31T11:29:19.246Z,88541.00
2023-05-31T11:30:19.285Z,88543.00
2023-05-31T11:31:19.307Z,88541.00
2023-05-31T11:32:19.370Z,88543.00
2023-05-31T11:33:19.368Z,88545.00
2023-05-31T11:34:19.383Z,88545.00
2023-05-31T11:35:19.407Z,88545.00
2023-05-31T11:36:19.423Z,88547.00
2023-05-31T11:37:19.469Z,88545.00
2023-05-31T11:38:19.473Z,88551.00
2023-05-31T11:39:19.469Z,88547.00
2023-05-31T11:40:19.513Z,88547.00
2023-05-31T11:41:19.492Z,88547.00
2023-05-31T11:42:19.542Z,88549.00
2023-05-31T11:43:19.505Z,88547.00
2023-05-31T11:44:19.517Z,88549.00
2023-05-31T11:45:19.564Z,88547.00